Terminal Aerodrome Forecast
Issued by NWS

Home | Current Version | Previous Version | Text Only | Print | Product List | Glossary On
Versions: 1 2 3 4 5 6 7 8 9 10 11 12
000
FTUS42 TJSJ 021742
TAFIST
TAF
TIST 021742Z 0218/0318 13015G20KT P6SM VCSH SCT025
     FM022200 10010KT P6SM VCSH FEW025 FEW035
      TEMPO 0222/0302 08014G25KT SHRA BKN030
     FM031300 13012KT P6SM SCT025=

USA.gov is the U.S. government's official web portal to all federal, state and local government web resources and services.